createdAt,value
2017-03-06T00:01:12.300Z,0
2017-03-06T00:02:25.378Z,0
2017-03-06T00:03:38.052Z,0
2017-03-06T00:04:51.134Z,0
2017-03-06T00:06:04.258Z,0
2017-03-06T00:07:17.325Z,0
2017-03-06T00:08:30.380Z,0
2017-03-06T00:09:43.421Z,0
2017-03-06T00:10:56.471Z,0
2017-03-06T00:12:09.542Z,0
2017-03-06T00:13:22.655Z,0
2017-03-06T00:14:35.762Z,0
2017-03-06T00:15:48.854Z,0
2017-03-06T00:17:01.577Z,0
2017-03-06T00:18:14.272Z,0
2017-03-06T00:19:27.309Z,0
2017-03-06T00:20:40.016Z,0
2017-03-06T00:21:53.059Z,0
2017-03-06T00:23:06.150Z,0
2017-03-06T00:24:19.276Z,0
2017-03-06T00:25:32.189Z,0
2017-03-06T00:26:45.273Z,0
2017-03-06T00:27:57.931Z,0
2017-03-06T00:29:10.981Z,0
2017-03-06T00:30:24.058Z,0
2017-03-06T00:31:36.355Z,0
2017-03-06T00:32:49.421Z,0
2017-03-06T00:34:02.118Z,0
2017-03-06T00:35:15.164Z,0
2017-03-06T00:36:28.264Z,0
2017-03-06T00:37:41.351Z,0
2017-03-06T00:38:54.455Z,0
2017-03-06T00:40:07.151Z,0
2017-03-06T00:41:20.262Z,0
2017-03-06T00:42:33.569Z,0
2017-03-06T00:43:46.681Z,0
2017-03-06T00:44:59.752Z,0
2017-03-06T00:46:12.429Z,0
2017-03-06T00:47:25.116Z,0
2017-03-06T00:48:37.827Z,0
2017-03-06T00:49:50.919Z,0
2017-03-06T00:51:03.989Z,0
2017-03-06T00:52:17.076Z,0
2017-03-06T00:53:30.207Z,0
2017-03-06T00:54:43.306Z,0
2017-03-06T00:55:56.373Z,0
2017-03-06T00:57:09.494Z,0
2017-03-06T00:58:22.214Z,0
2017-03-06T00:59:35.298Z,0
2017-03-06T01:00:48.373Z,0
2017-03-06T01:02:01.026Z,0
2017-03-06T01:03:14.122Z,0
2017-03-06T01:04:26.832Z,0
2017-03-06T01:05:39.512Z,0
2017-03-06T01:06:52.582Z,0
2017-03-06T01:08:05.632Z,0
2017-03-06T01:09:18.294Z,0
2017-03-06T01:10:31.395Z,0
2017-03-06T01:11:44.461Z,0
2017-03-06T01:12:57.561Z,0
2017-03-06T01:14:10.610Z,0
2017-03-06T01:15:23.670Z,0
2017-03-06T01:16:36.323Z,0
2017-03-06T01:17:49.394Z,0
2017-03-06T01:19:02.448Z,0
2017-03-06T01:20:15.743Z,0
2017-03-06T01:21:28.907Z,0
2017-03-06T01:22:42.000Z,0
2017-03-06T01:23:55.074Z,0
2017-03-06T01:25:07.712Z,0
2017-03-06T01:26:20.769Z,0
2017-03-06T01:27:33.453Z,0
2017-03-06T01:28:46.137Z,0
2017-03-06T01:29:59.183Z,0
2017-03-06T01:31:12.224Z,0
2017-03-06T01:32:25.321Z,0
2017-03-06T01:33:37.584Z,0
2017-03-06T01:34:50.679Z,0
2017-03-06T01:36:03.741Z,0
2017-03-06T01:37:16.825Z,0
2017-03-06T01:38:29.527Z,0
2017-03-06T01:39:42.271Z,0
2017-03-06T01:40:55.313Z,0
2017-03-06T01:42:08.383Z,0
2017-03-06T01:43:21.464Z,0
2017-03-06T01:44:34.529Z,0
2017-03-06T01:45:47.628Z,0
2017-03-06T01:46:59.921Z,0
2017-03-06T01:48:12.983Z,0
2017-03-06T01:49:26.059Z,0
2017-03-06T01:50:39.184Z,0
2017-03-06T01:51:52.233Z,0
2017-03-06T01:53:05.305Z,0
2017-03-06T01:54:18.350Z,0
2017-03-06T01:55:31.416Z,0
2017-03-06T01:56:44.513Z,0
2017-03-06T01:57:57.838Z,0
2017-03-06T01:59:10.900Z,0
2017-03-06T02:00:23.958Z,0
2017-03-06T02:01:37.014Z,0
2017-03-06T02:02:49.721Z,0
2017-03-06T02:04:02.838Z,0
2017-03-06T02:05:15.875Z,0
2017-03-06T02:06:28.184Z,0
2017-03-06T02:07:41.228Z,0
2017-03-06T02:08:54.296Z,0
2017-03-06T02:10:07.346Z,0
2017-03-06T02:11:20.481Z,0
2017-03-06T02:12:33.556Z,0
2017-03-06T02:13:46.637Z,0
2017-03-06T02:14:59.727Z,0
2017-03-06T02:16:12.801Z,0
2017-03-06T02:17:25.835Z,0
2017-03-06T02:18:38.868Z,0
2017-03-06T02:19:52.155Z,0
2017-03-06T02:21:05.224Z,0
2017-03-06T02:22:17.970Z,0
2017-03-06T02:23:30.625Z,0
2017-03-06T02:24:43.696Z,0
2017-03-06T02:25:56.771Z,0
2017-03-06T02:27:09.835Z,0
2017-03-06T02:28:22.884Z,0
2017-03-06T02:29:35.952Z,0
2017-03-06T02:30:48.996Z,0
2017-03-06T02:32:02.043Z,0
2017-03-06T02:33:15.118Z,0
2017-03-06T02:34:28.189Z,0
2017-03-06T02:35:41.231Z,0
2017-03-06T02:36:54.305Z,0
2017-03-06T02:38:07.377Z,0
2017-03-06T02:39:20.448Z,0
2017-03-06T02:40:33.485Z,0
2017-03-06T02:41:46.552Z,0
2017-03-06T02:42:59.602Z,0
2017-03-06T02:44:12.677Z,0
2017-03-06T02:45:25.754Z,0
2017-03-06T02:46:39.106Z,0
2017-03-06T02:47:52.189Z,0
2017-03-06T02:49:05.240Z,0
2017-03-06T02:50:18.349Z,0
2017-03-06T02:51:31.423Z,0
2017-03-06T02:52:44.490Z,0
2017-03-06T02:53:57.591Z,0
2017-03-06T02:55:10.244Z,0
2017-03-06T02:56:23.282Z,0
2017-03-06T02:57:35.575Z,0
2017-03-06T02:58:48.648Z,0
2017-03-06T03:00:01.320Z,0
2017-03-06T03:01:14.394Z,0
2017-03-06T03:02:27.458Z,0
2017-03-06T03:03:40.528Z,0
2017-03-06T03:04:53.203Z,0
2017-03-06T03:06:06.252Z,0
2017-03-06T03:07:18.924Z,0
2017-03-06T03:08:31.997Z,0
2017-03-06T03:09:45.045Z,0
2017-03-06T03:10:58.142Z,0
2017-03-06T03:12:10.857Z,0
2017-03-06T03:13:23.933Z,0
2017-03-06T03:14:37.001Z,0
2017-03-06T03:15:49.694Z,0
2017-03-06T03:17:02.359Z,0
2017-03-06T03:18:15.436Z,0
2017-03-06T03:19:28.500Z,0
2017-03-06T03:20:41.595Z,0
2017-03-06T03:21:54.721Z,0
2017-03-06T03:23:07.437Z,0
2017-03-06T03:24:20.477Z,0
2017-03-06T03:25:33.537Z,0
2017-03-06T03:26:46.575Z,0
2017-03-06T03:27:59.657Z,0
2017-03-06T03:29:11.932Z,0
2017-03-06T03:30:25.270Z,0
2017-03-06T03:31:38.348Z,0
2017-03-06T03:32:51.415Z,0
2017-03-06T03:34:04.483Z,0
2017-03-06T03:35:17.582Z,0
2017-03-06T03:36:29.896Z,0
2017-03-06T03:37:42.946Z,0
2017-03-06T03:38:55.996Z,0
2017-03-06T03:40:08.704Z,0
2017-03-06T03:41:21.761Z,0
2017-03-06T03:42:34.810Z,0
2017-03-06T03:43:47.893Z,0
2017-03-06T03:45:00.955Z,0
2017-03-06T03:46:13.663Z,0
2017-03-06T03:47:26.741Z,0
2017-03-06T03:48:39.429Z,0
2017-03-06T03:49:52.482Z,0
2017-03-06T03:51:05.551Z,0
2017-03-06T03:52:18.570Z,0
2017-03-06T03:53:31.612Z,0
2017-03-06T03:54:44.680Z,0
2017-03-06T03:55:57.783Z,0
2017-03-06T03:57:10.855Z,0
2017-03-06T03:58:23.921Z,0
2017-03-06T03:59:36.647Z,0
2017-03-06T04:00:49.363Z,0
2017-03-06T04:02:02.407Z,0
2017-03-06T04:03:15.308Z,0
2017-03-06T04:04:28.384Z,0
2017-03-06T04:05:41.100Z,0
2017-03-06T04:06:54.200Z,0
2017-03-06T04:08:07.248Z,0
2017-03-06T04:09:20.313Z,0
2017-03-06T04:10:33.385Z,0
2017-03-06T04:11:46.447Z,0
2017-03-06T04:12:59.529Z,0
2017-03-06T04:14:12.599Z,0
2017-03-06T04:15:25.688Z,0
2017-03-06T04:16:38.767Z,0
2017-03-06T04:17:51.826Z,0
2017-03-06T04:19:04.136Z,0
2017-03-06T04:20:16.800Z,0
2017-03-06T04:21:29.482Z,0
2017-03-06T04:22:42.196Z,0
2017-03-06T04:23:55.219Z,0
2017-03-06T04:25:08.302Z,0
2017-03-06T04:26:21.349Z,0
2017-03-06T04:27:34.383Z,0
2017-03-06T04:28:47.465Z,0
2017-03-06T04:30:00.522Z,0
2017-03-06T04:31:13.585Z,0
2017-03-06T04:32:26.656Z,0
2017-03-06T04:33:39.332Z,0
2017-03-06T04:34:52.397Z,0
2017-03-06T04:36:05.500Z,0
2017-03-06T04:37:18.221Z,0
2017-03-06T04:38:31.282Z,0
2017-03-06T04:39:43.968Z,0
2017-03-06T04:40:57.034Z,0
2017-03-06T04:42:10.098Z,0
2017-03-06T04:43:23.147Z,0
2017-03-06T04:44:36.243Z,0
2017-03-06T04:45:48.945Z,0
2017-03-06T04:47:01.661Z,0
2017-03-06T04:48:14.699Z,0
2017-03-06T04:49:27.799Z,0
2017-03-06T04:50:40.498Z,0
2017-03-06T04:51:53.573Z,0
2017-03-06T04:53:06.668Z,0
2017-03-06T04:54:19.711Z,0
2017-03-06T04:55:32.778Z,0
2017-03-06T04:56:45.811Z,0
2017-03-06T04:57:58.876Z,0
2017-03-06T04:59:11.562Z,0
2017-03-06T05:00:24.618Z,0
2017-03-06T05:01:37.290Z,0
2017-03-06T05:02:50.361Z,0
2017-03-06T05:04:03.448Z,0
2017-03-06T05:05:16.557Z,0
2017-03-06T05:06:29.612Z,0
2017-03-06T05:07:42.668Z,0
2017-03-06T05:08:55.761Z,0
2017-03-06T05:10:08.503Z,0
2017-03-06T05:11:21.604Z,0
2017-03-06T05:12:34.680Z,0
2017-03-06T05:13:47.797Z,0
2017-03-06T05:15:00.495Z,0
2017-03-06T05:16:13.579Z,0
2017-03-06T05:17:26.657Z,0
2017-03-06T05:18:39.733Z,0
2017-03-06T05:19:52.653Z,0
2017-03-06T05:21:05.745Z,0
2017-03-06T05:22:18.812Z,0
2017-03-06T05:23:31.883Z,0
2017-03-06T05:24:44.933Z,0
2017-03-06T05:25:58.004Z,0
2017-03-06T05:27:11.053Z,0
2017-03-06T05:28:24.096Z,0
2017-03-06T05:29:36.769Z,0
2017-03-06T05:30:49.433Z,0
2017-03-06T05:32:02.538Z,5
2017-03-06T05:33:15.583Z,5
2017-03-06T05:34:28.646Z,5
2017-03-06T05:35:41.695Z,5
2017-03-06T05:36:54.770Z,5
2017-03-06T05:38:07.817Z,10
2017-03-06T05:39:20.864Z,10
2017-03-06T05:40:33.925Z,10
2017-03-06T05:41:46.978Z,15
2017-03-06T05:43:00.052Z,15
2017-03-06T05:44:13.171Z,15
2017-03-06T05:45:26.255Z,20
2017-03-06T05:46:39.188Z,20
2017-03-06T05:47:51.879Z,20
2017-03-06T05:49:04.931Z,25
2017-03-06T05:50:18.028Z,25
2017-03-06T05:51:31.098Z,30
2017-03-06T05:52:44.168Z,30
2017-03-06T05:53:57.282Z,35
2017-03-06T05:55:10.333Z,35
2017-03-06T05:56:23.377Z,35
2017-03-06T05:57:36.047Z,40
2017-03-06T05:58:48.743Z,40
2017-03-06T06:00:01.840Z,45
2017-03-06T06:01:14.903Z,45
2017-03-06T06:02:27.999Z,50
2017-03-06T06:03:41.369Z,55
2017-03-06T06:04:54.446Z,55
2017-03-06T06:06:07.138Z,60
2017-03-06T06:07:19.831Z,65
2017-03-06T06:08:32.478Z,70
2017-03-06T06:09:45.158Z,70
2017-03-06T06:10:57.830Z,75
2017-03-06T06:12:10.943Z,80
2017-03-06T06:13:23.614Z,85
2017-03-06T06:14:36.694Z,90
2017-03-06T06:15:49.756Z,90
2017-03-06T06:17:02.810Z,95
2017-03-06T06:18:15.869Z,100
2017-03-06T06:19:28.575Z,105
2017-03-06T06:20:41.672Z,110
2017-03-06T06:21:54.764Z,115
2017-03-06T06:23:07.819Z,120
2017-03-06T06:24:20.184Z,125
2017-03-06T06:25:33.256Z,130
2017-03-06T06:26:46.345Z,130
2017-03-06T06:27:59.019Z,135
2017-03-06T06:29:12.083Z,140
2017-03-06T06:30:25.161Z,140
2017-03-06T06:31:38.231Z,145
2017-03-06T06:32:51.320Z,145
2017-03-06T06:34:04.396Z,150
2017-03-06T06:35:17.473Z,150
2017-03-06T06:36:30.532Z,150
2017-03-06T06:37:43.215Z,150
2017-03-06T06:38:56.310Z,150
2017-03-06T06:40:08.998Z,155
2017-03-06T06:41:21.719Z,155
2017-03-06T06:42:34.778Z,160
2017-03-06T06:43:47.865Z,165
2017-03-06T06:45:00.962Z,170
2017-03-06T06:46:14.036Z,175
2017-03-06T06:47:27.383Z,175
2017-03-06T06:48:40.455Z,180
2017-03-06T06:49:53.541Z,185
2017-03-06T06:51:06.595Z,190
2017-03-06T06:52:19.679Z,200
2017-03-06T06:53:32.760Z,205
2017-03-06T06:54:45.853Z,210
2017-03-06T06:55:58.924Z,220
2017-03-06T06:57:11.974Z,225
2017-03-06T06:58:25.037Z,230
2017-03-06T06:59:38.096Z,230
2017-03-06T07:00:51.151Z,235
2017-03-06T07:02:04.209Z,235
2017-03-06T07:03:17.153Z,240
2017-03-06T07:04:30.248Z,245
2017-03-06T07:05:43.321Z,255
2017-03-06T07:06:56.365Z,265
2017-03-06T07:08:09.439Z,270
2017-03-06T07:09:22.487Z,275
2017-03-06T07:10:35.592Z,290
2017-03-06T07:11:48.645Z,290
2017-03-06T07:13:01.712Z,300
2017-03-06T07:14:14.405Z,305
2017-03-06T07:15:27.104Z,315
2017-03-06T07:16:40.178Z,320
2017-03-06T07:17:52.850Z,325
2017-03-06T07:19:05.888Z,335
2017-03-06T07:20:18.934Z,340
2017-03-06T07:21:31.988Z,345
2017-03-06T07:22:44.685Z,350
2017-03-06T07:23:57.734Z,350
2017-03-06T07:25:10.767Z,355
2017-03-06T07:26:23.830Z,355
2017-03-06T07:27:36.521Z,355
2017-03-06T07:28:49.589Z,360
2017-03-06T07:30:02.688Z,360
2017-03-06T07:31:15.783Z,360
2017-03-06T07:32:28.829Z,360
2017-03-06T07:33:41.917Z,360
2017-03-06T07:34:54.968Z,360
2017-03-06T07:36:07.646Z,365
2017-03-06T07:37:20.727Z,370
2017-03-06T07:38:33.823Z,380
2017-03-06T07:39:46.476Z,390
2017-03-06T07:40:59.165Z,400
2017-03-06T07:42:11.835Z,400
2017-03-06T07:43:24.938Z,405
2017-03-06T07:44:38.013Z,405
2017-03-06T07:45:50.708Z,410
2017-03-06T07:47:03.808Z,410
2017-03-06T07:48:16.505Z,415
2017-03-06T07:49:29.597Z,420
2017-03-06T07:50:42.684Z,430
2017-03-06T07:51:55.355Z,445
2017-03-06T07:53:08.434Z,455
2017-03-06T07:54:21.502Z,475
2017-03-06T07:55:34.578Z,495
2017-03-06T07:56:47.264Z,520
2017-03-06T07:57:59.564Z,535
2017-03-06T07:59:12.640Z,550
2017-03-06T08:00:25.724Z,560
2017-03-06T08:01:38.781Z,570
2017-03-06T08:02:51.847Z,580
2017-03-06T08:04:04.572Z,590
2017-03-06T08:05:17.636Z,605
2017-03-06T08:06:30.713Z,610
2017-03-06T08:07:43.799Z,625
2017-03-06T08:08:56.856Z,635
2017-03-06T08:10:09.166Z,645
2017-03-06T08:11:22.243Z,655
2017-03-06T08:12:35.320Z,655
2017-03-06T08:13:48.015Z,660
2017-03-06T08:15:01.124Z,660
2017-03-06T08:16:13.827Z,655
2017-03-06T08:17:26.902Z,650
2017-03-06T08:18:39.610Z,645
2017-03-06T08:19:52.541Z,640
2017-03-06T08:21:05.240Z,630
2017-03-06T08:22:18.360Z,625
2017-03-06T08:23:31.478Z,610
2017-03-06T08:24:44.549Z,595
2017-03-06T08:25:57.649Z,585
2017-03-06T08:27:10.743Z,575
2017-03-06T08:28:23.429Z,565
2017-03-06T08:29:36.507Z,565
2017-03-06T08:30:49.557Z,560
2017-03-06T08:32:02.694Z,560
2017-03-06T08:33:15.740Z,565
2017-03-06T08:34:28.833Z,560
2017-03-06T08:35:41.928Z,565
2017-03-06T08:36:54.615Z,565
2017-03-06T08:38:07.320Z,570
2017-03-06T08:39:20.442Z,575
2017-03-06T08:40:33.544Z,575
2017-03-06T08:41:46.833Z,580
2017-03-06T08:42:59.981Z,585
2017-03-06T08:44:12.686Z,585
2017-03-06T08:45:25.753Z,585
2017-03-06T08:46:38.803Z,580
2017-03-06T08:47:51.512Z,580
2017-03-06T08:49:04.616Z,575
2017-03-06T08:50:17.312Z,570
2017-03-06T08:51:29.986Z,560
2017-03-06T08:52:42.695Z,550
2017-03-06T08:53:55.766Z,540
2017-03-06T08:55:08.445Z,530
2017-03-06T08:56:21.519Z,525
2017-03-06T08:57:34.212Z,525
2017-03-06T08:58:46.536Z,525
2017-03-06T08:59:59.607Z,530
2017-03-06T09:01:12.277Z,535
2017-03-06T09:02:25.364Z,540
2017-03-06T09:03:38.445Z,540
2017-03-06T09:04:51.541Z,535
2017-03-06T09:06:04.583Z,530
2017-03-06T09:07:17.256Z,525
2017-03-06T09:08:30.299Z,520
2017-03-06T09:09:42.623Z,515
2017-03-06T09:10:55.338Z,515
2017-03-06T09:12:08.083Z,520
2017-03-06T09:13:21.131Z,535
2017-03-06T09:14:34.182Z,535
2017-03-06T09:15:47.295Z,530
2017-03-06T09:17:00.376Z,520
2017-03-06T09:18:12.295Z,510
2017-03-06T09:19:25.411Z,505
2017-03-06T09:20:38.114Z,520
2017-03-06T09:21:50.812Z,540
2017-03-06T09:23:03.855Z,575
2017-03-06T09:24:16.925Z,595
2017-03-06T09:25:30.022Z,615
2017-03-06T09:26:43.058Z,630
2017-03-06T09:27:56.106Z,625
2017-03-06T09:29:09.198Z,625
2017-03-06T09:30:22.257Z,620
2017-03-06T09:31:35.374Z,635
2017-03-06T09:32:48.463Z,640
2017-03-06T09:34:01.159Z,660
2017-03-06T09:35:14.251Z,670
2017-03-06T09:36:26.530Z,670
2017-03-06T09:37:39.229Z,665
2017-03-06T09:38:52.339Z,650
2017-03-06T09:40:05.391Z,640
2017-03-06T09:41:17.713Z,640
2017-03-06T09:42:30.416Z,645
2017-03-06T09:43:43.526Z,655
2017-03-06T09:44:56.643Z,660
2017-03-06T09:46:09.727Z,665
2017-03-06T09:47:22.766Z,670
2017-03-06T09:48:35.460Z,680
2017-03-06T09:49:47.769Z,690
2017-03-06T09:51:00.856Z,695
2017-03-06T09:52:13.931Z,705
2017-03-06T09:53:26.623Z,710
2017-03-06T09:54:39.290Z,720
2017-03-06T09:55:52.341Z,715
2017-03-06T09:57:05.410Z,710
2017-03-06T09:58:18.127Z,700
2017-03-06T09:59:31.243Z,695
2017-03-06T10:00:44.314Z,680
2017-03-06T10:01:57.422Z,680
2017-03-06T10:03:10.486Z,675
2017-03-06T10:04:23.595Z,675
2017-03-06T10:05:36.677Z,665
2017-03-06T10:06:49.731Z,655
2017-03-06T10:08:02.797Z,650
2017-03-06T10:09:15.422Z,660
2017-03-06T10:10:28.120Z,675
2017-03-06T10:11:40.789Z,690
2017-03-06T10:12:53.848Z,715
2017-03-06T10:14:06.923Z,740
2017-03-06T10:15:19.994Z,750
2017-03-06T10:16:32.677Z,740
2017-03-06T10:17:45.781Z,710
2017-03-06T10:18:58.455Z,655
2017-03-06T10:20:11.506Z,600
2017-03-06T10:21:24.598Z,550
2017-03-06T10:22:37.316Z,510
2017-03-06T10:23:49.999Z,490
2017-03-06T10:25:03.071Z,470
2017-03-06T10:26:15.760Z,465
2017-03-06T10:27:28.861Z,465
2017-03-06T10:28:41.936Z,455
2017-03-06T10:29:54.653Z,425
2017-03-06T10:31:07.341Z,400
2017-03-06T10:32:20.019Z,385
2017-03-06T10:33:33.129Z,380
2017-03-06T10:34:45.832Z,395
2017-03-06T10:35:58.909Z,405
2017-03-06T10:37:11.974Z,405
2017-03-06T10:38:25.044Z,400
2017-03-06T10:39:37.737Z,405
2017-03-06T10:40:50.804Z,415
2017-03-06T10:42:03.886Z,425
2017-03-06T10:43:16.573Z,430
2017-03-06T10:44:29.644Z,440
2017-03-06T10:45:42.695Z,435
2017-03-06T10:46:55.770Z,415
2017-03-06T10:48:08.858Z,380
2017-03-06T10:49:20.802Z,355
2017-03-06T10:50:33.848Z,350
2017-03-06T10:51:46.949Z,355
2017-03-06T10:52:59.998Z,370
2017-03-06T10:54:13.141Z,395
2017-03-06T10:55:25.838Z,415
2017-03-06T10:56:38.948Z,440
2017-03-06T10:57:52.054Z,455
2017-03-06T10:59:04.771Z,490
2017-03-06T11:00:17.877Z,565
2017-03-06T11:01:30.959Z,650
2017-03-06T11:02:43.662Z,705
2017-03-06T11:03:56.734Z,745
2017-03-06T11:05:09.808Z,775
2017-03-06T11:06:22.529Z,800
2017-03-06T11:07:35.596Z,830
2017-03-06T11:08:48.645Z,850
2017-03-06T11:10:01.718Z,850
2017-03-06T11:11:14.801Z,875
2017-03-06T11:12:27.875Z,905
2017-03-06T11:13:40.578Z,940
2017-03-06T11:14:53.676Z,975
2017-03-06T11:16:06.761Z,1000
2017-03-06T11:17:19.816Z,1005
2017-03-06T11:18:32.887Z,995
2017-03-06T11:19:45.963Z,985
2017-03-06T11:20:59.043Z,975
2017-03-06T11:22:12.127Z,970
2017-03-06T11:23:25.196Z,970
2017-03-06T11:24:38.262Z,955
2017-03-06T11:25:50.963Z,915
2017-03-06T11:27:04.051Z,895
2017-03-06T11:28:16.755Z,905
2017-03-06T11:29:29.421Z,935
2017-03-06T11:30:42.112Z,950
2017-03-06T11:31:55.219Z,935
2017-03-06T11:33:07.509Z,920
2017-03-06T11:34:20.580Z,900
2017-03-06T11:35:33.260Z,880
2017-03-06T11:36:46.372Z,865
2017-03-06T11:37:59.444Z,860
2017-03-06T11:39:12.492Z,870
2017-03-06T11:40:25.562Z,875
2017-03-06T11:41:38.601Z,885
2017-03-06T11:42:51.731Z,895
2017-03-06T11:44:04.801Z,905
2017-03-06T11:45:17.896Z,915
2017-03-06T11:46:30.919Z,930
2017-03-06T11:47:43.609Z,945
2017-03-06T11:48:56.710Z,960
2017-03-06T11:50:09.822Z,975
2017-03-06T11:51:22.926Z,990
2017-03-06T11:52:35.611Z,995
2017-03-06T11:53:48.709Z,1000
2017-03-06T11:55:01.410Z,995
2017-03-06T11:56:14.524Z,980
2017-03-06T11:57:27.894Z,945
2017-03-06T11:58:40.573Z,945
2017-03-06T11:59:53.673Z,975
2017-03-06T12:01:06.819Z,995
2017-03-06T12:02:19.889Z,1020
2017-03-06T12:03:32.578Z,1035
2017-03-06T12:04:45.669Z,1030
2017-03-06T12:05:58.744Z,1020
2017-03-06T12:07:11.851Z,1025
2017-03-06T12:08:24.920Z,1005
2017-03-06T12:09:38.014Z,970
2017-03-06T12:10:51.102Z,935
2017-03-06T12:12:03.779Z,920
2017-03-06T12:13:16.902Z,895
2017-03-06T12:14:29.220Z,870
2017-03-06T12:15:42.269Z,805
2017-03-06T12:16:54.978Z,725
2017-03-06T12:18:08.049Z,640
2017-03-06T12:19:21.122Z,615
2017-03-06T12:20:34.219Z,630
2017-03-06T12:21:47.294Z,625
2017-03-06T12:23:00.333Z,575
2017-03-06T12:24:13.036Z,525
2017-03-06T12:25:24.982Z,530
2017-03-06T12:26:38.036Z,530
2017-03-06T12:27:51.120Z,490
2017-03-06T12:29:04.177Z,440
2017-03-06T12:30:17.271Z,410
2017-03-06T12:31:30.008Z,385
2017-03-06T12:32:43.103Z,350
2017-03-06T12:33:56.183Z,315
2017-03-06T12:35:09.266Z,320
2017-03-06T12:36:22.320Z,360
2017-03-06T12:37:35.409Z,405
2017-03-06T12:38:48.058Z,440
2017-03-06T12:40:01.158Z,450
2017-03-06T12:41:14.247Z,445
2017-03-06T12:42:27.321Z,420
2017-03-06T12:43:40.412Z,385
2017-03-06T12:44:53.047Z,355
2017-03-06T12:46:06.113Z,340
2017-03-06T12:47:18.804Z,335
2017-03-06T12:48:31.879Z,320
2017-03-06T12:49:44.966Z,300
2017-03-06T12:50:57.271Z,270
2017-03-06T12:52:10.845Z,260
2017-03-06T12:53:23.939Z,285
2017-03-06T12:54:37.051Z,305
2017-03-06T12:55:50.129Z,320
2017-03-06T12:57:03.196Z,315
2017-03-06T12:58:15.901Z,295
2017-03-06T12:59:28.559Z,270
2017-03-06T13:00:41.644Z,250
2017-03-06T13:01:54.742Z,235
2017-03-06T13:03:07.804Z,230
2017-03-06T13:04:20.478Z,225
2017-03-06T13:05:33.214Z,225
2017-03-06T13:06:45.921Z,210
2017-03-06T13:07:58.631Z,185
2017-03-06T13:09:11.702Z,180
2017-03-06T13:10:24.775Z,205
2017-03-06T13:11:37.075Z,250
2017-03-06T13:12:50.149Z,300
2017-03-06T13:14:02.847Z,340
2017-03-06T13:15:15.922Z,375
2017-03-06T13:16:28.613Z,410
2017-03-06T13:17:41.680Z,450
2017-03-06T13:18:54.243Z,520
2017-03-06T13:20:06.151Z,570
2017-03-06T13:21:19.243Z,615
2017-03-06T13:22:32.368Z,640
2017-03-06T13:23:45.080Z,640
2017-03-06T13:24:58.188Z,620
2017-03-06T13:26:10.879Z,595
2017-03-06T13:27:24.003Z,575
2017-03-06T13:28:37.072Z,555
2017-03-06T13:29:49.782Z,535
2017-03-06T13:31:02.086Z,525
2017-03-06T13:32:14.797Z,520
2017-03-06T13:33:27.497Z,530
2017-03-06T13:34:40.577Z,530
2017-03-06T13:35:53.672Z,530
2017-03-06T13:37:06.357Z,490
2017-03-06T13:38:19.463Z,450
2017-03-06T13:39:32.534Z,410
2017-03-06T13:40:44.823Z,380
2017-03-06T13:41:57.902Z,370
2017-03-06T13:43:10.999Z,370
2017-03-06T13:44:24.064Z,385
2017-03-06T13:45:37.181Z,400
2017-03-06T13:46:49.914Z,410
2017-03-06T13:48:02.981Z,405
2017-03-06T13:49:15.657Z,380
2017-03-06T13:50:28.301Z,315
2017-03-06T13:51:41.394Z,250
2017-03-06T13:52:54.461Z,195
2017-03-06T13:54:07.556Z,150
2017-03-06T13:55:19.856Z,130
2017-03-06T13:56:32.942Z,130
2017-03-06T13:57:45.999Z,125
2017-03-06T13:58:59.089Z,120
2017-03-06T14:00:11.746Z,110
2017-03-06T14:01:24.836Z,100
2017-03-06T14:02:37.903Z,95
2017-03-06T14:03:50.604Z,85
2017-03-06T14:05:03.641Z,70
2017-03-06T14:06:16.722Z,65
2017-03-06T14:07:29.829Z,55
2017-03-06T14:08:42.550Z,55
2017-03-06T14:09:55.620Z,50
2017-03-06T14:11:08.307Z,50
2017-03-06T14:12:21.377Z,50
2017-03-06T14:13:34.061Z,50
2017-03-06T14:14:47.157Z,45
2017-03-06T14:16:00.233Z,45
2017-03-06T14:17:13.286Z,40
2017-03-06T14:18:26.378Z,40
2017-03-06T14:19:38.671Z,45
2017-03-06T14:20:51.758Z,50
2017-03-06T14:22:04.437Z,55
2017-03-06T14:23:17.512Z,60
2017-03-06T14:24:30.584Z,65
2017-03-06T14:25:43.704Z,70
2017-03-06T14:26:56.025Z,75
2017-03-06T14:28:09.117Z,85
2017-03-06T14:29:22.221Z,105
2017-03-06T14:30:35.291Z,115
2017-03-06T14:31:48.000Z,115
2017-03-06T14:33:00.671Z,120
2017-03-06T14:34:13.721Z,125
2017-03-06T14:35:26.445Z,140
2017-03-06T14:36:38.766Z,145
2017-03-06T14:37:51.862Z,145
2017-03-06T14:39:04.958Z,140
2017-03-06T14:40:18.052Z,130
2017-03-06T14:41:31.129Z,125
2017-03-06T14:42:43.847Z,130
2017-03-06T14:43:56.913Z,135
2017-03-06T14:45:09.614Z,150
2017-03-06T14:46:22.658Z,175
2017-03-06T14:47:35.757Z,210
2017-03-06T14:48:48.850Z,240
2017-03-06T14:50:01.894Z,270
2017-03-06T14:51:14.991Z,295
2017-03-06T14:52:28.112Z,315
2017-03-06T14:53:41.182Z,325
2017-03-06T14:54:54.259Z,325
2017-03-06T14:56:06.947Z,330
2017-03-06T14:57:20.018Z,340
2017-03-06T14:58:33.089Z,350
2017-03-06T14:59:46.187Z,360
2017-03-06T15:00:59.259Z,360
2017-03-06T15:02:11.934Z,360
2017-03-06T15:03:25.019Z,365
2017-03-06T15:04:38.085Z,370
2017-03-06T15:05:51.189Z,380
2017-03-06T15:07:04.338Z,375
2017-03-06T15:08:17.433Z,370
2017-03-06T15:09:30.477Z,370
2017-03-06T15:10:43.543Z,365
2017-03-06T15:11:56.227Z,355
2017-03-06T15:13:09.311Z,335
2017-03-06T15:14:21.990Z,315
2017-03-06T15:15:35.048Z,300
2017-03-06T15:16:48.122Z,285
2017-03-06T15:18:01.177Z,280
2017-03-06T15:19:14.268Z,275
2017-03-06T15:20:26.968Z,270
2017-03-06T15:21:40.056Z,265
2017-03-06T15:22:53.131Z,260
2017-03-06T15:24:05.829Z,255
2017-03-06T15:25:18.517Z,255
2017-03-06T15:26:31.636Z,255
2017-03-06T15:27:44.693Z,250
2017-03-06T15:28:57.755Z,250
2017-03-06T15:30:10.856Z,245
2017-03-06T15:31:23.606Z,235
2017-03-06T15:32:36.700Z,225
2017-03-06T15:33:49.743Z,205
2017-03-06T15:35:02.814Z,195
2017-03-06T15:36:15.128Z,175
2017-03-06T15:37:28.177Z,160
2017-03-06T15:38:41.227Z,150
2017-03-06T15:39:54.328Z,140
2017-03-06T15:41:07.412Z,135
2017-03-06T15:42:20.508Z,130
2017-03-06T15:43:33.163Z,125
2017-03-06T15:44:46.207Z,125
2017-03-06T15:45:58.871Z,130
2017-03-06T15:47:11.595Z,130
2017-03-06T15:48:23.900Z,135
2017-03-06T15:49:37.007Z,140
2017-03-06T15:50:49.294Z,140
2017-03-06T15:52:02.410Z,145
2017-03-06T15:53:15.450Z,140
2017-03-06T15:54:28.532Z,135
2017-03-06T15:55:41.650Z,130
2017-03-06T15:56:54.744Z,125
2017-03-06T15:58:07.856Z,125
2017-03-06T15:59:20.538Z,130
2017-03-06T16:00:33.629Z,130
2017-03-06T16:01:46.695Z,130
2017-03-06T16:02:59.791Z,125
2017-03-06T16:04:12.895Z,120
2017-03-06T16:05:25.980Z,115
2017-03-06T16:06:39.063Z,110
2017-03-06T16:07:52.156Z,105
2017-03-06T16:09:05.230Z,100
2017-03-06T16:10:18.300Z,100
2017-03-06T16:11:30.584Z,100
2017-03-06T16:12:43.641Z,95
2017-03-06T16:13:56.764Z,95
2017-03-06T16:15:09.858Z,95
2017-03-06T16:16:22.553Z,95
2017-03-06T16:17:35.638Z,90
2017-03-06T16:18:48.735Z,90
2017-03-06T16:20:01.823Z,85
2017-03-06T16:21:14.859Z,85
2017-03-06T16:22:27.958Z,80
2017-03-06T16:23:41.025Z,75
2017-03-06T16:24:54.122Z,75
2017-03-06T16:26:06.821Z,70
2017-03-06T16:27:19.872Z,65
2017-03-06T16:28:32.558Z,60
2017-03-06T16:29:45.633Z,60
2017-03-06T16:30:58.702Z,55
2017-03-06T16:32:11.402Z,55
2017-03-06T16:33:24.471Z,50
2017-03-06T16:34:37.581Z,50
2017-03-06T16:35:50.299Z,45
2017-03-06T16:37:03.401Z,40
2017-03-06T16:38:16.478Z,40
2017-03-06T16:39:29.149Z,35
2017-03-06T16:40:42.470Z,30
2017-03-06T16:41:55.544Z,20
2017-03-06T16:43:08.625Z,20
2017-03-06T16:44:21.326Z,15
2017-03-06T16:45:34.027Z,15
2017-03-06T16:46:47.118Z,10
2017-03-06T16:48:00.186Z,10
2017-03-06T16:49:13.242Z,10
2017-03-06T16:50:26.327Z,5
2017-03-06T16:51:39.410Z,5
2017-03-06T16:52:52.536Z,5
2017-03-06T16:54:05.689Z,5
2017-03-06T16:55:18.799Z,5
2017-03-06T16:56:31.489Z,0
2017-03-06T16:57:43.388Z,0
2017-03-06T16:58:56.473Z,0
2017-03-06T17:00:09.547Z,0
2017-03-06T17:01:22.630Z,0
2017-03-06T17:02:35.293Z,0
2017-03-06T17:03:48.357Z,0
2017-03-06T17:05:01.432Z,0
2017-03-06T17:06:14.134Z,0
2017-03-06T17:07:27.252Z,0
2017-03-06T17:08:39.977Z,0
2017-03-06T17:09:53.043Z,0
2017-03-06T17:11:05.765Z,0
2017-03-06T17:12:18.828Z,0
2017-03-06T17:13:31.923Z,0